createdAt,value
2019-04-14T00:01:56.611Z,1.66
2019-04-14T00:05:03.995Z,1.83
2019-04-14T00:08:09.377Z,1.67
2019-04-14T00:11:14.828Z,1.58
2019-04-14T00:14:20.784Z,1.57
2019-04-14T00:17:26.313Z,1.52
2019-04-14T00:20:31.616Z,1.48
2019-04-14T00:23:36.998Z,1.45
2019-04-14T00:26:42.335Z,1.46
2019-04-14T00:29:47.941Z,1.47
2019-04-14T00:32:59.466Z,1.42
2019-04-14T00:36:11.470Z,1.41
2019-04-14T00:39:23.192Z,1.46
2019-04-14T00:42:51.588Z,1.58
2019-04-14T00:46:03.022Z,1.64
2019-04-14T00:49:09.508Z,1.64
2019-04-14T00:52:14.776Z,1.65
2019-04-14T00:55:20.475Z,1.68
2019-04-14T00:58:25.975Z,1.77
2019-04-14T01:01:31.261Z,1.68
2019-04-14T01:04:36.547Z,1.53
2019-04-14T01:07:41.798Z,1.56
2019-04-14T01:10:47.687Z,1.51
2019-04-14T01:13:55.022Z,1.27
2019-04-14T01:17:00.546Z,1.26
2019-04-14T01:20:07.827Z,1.10
2019-04-14T01:23:13.299Z,1.03
2019-04-14T01:26:18.582Z,1.01
2019-04-14T01:29:23.860Z,0.93
2019-04-14T01:32:30.484Z,0.93
2019-04-14T01:35:35.881Z,0.78
2019-04-14T01:38:41.167Z,0.64
2019-04-14T01:41:47.747Z,0.66
2019-04-14T01:44:54.524Z,0.54
2019-04-14T01:48:00.026Z,0.57
2019-04-14T01:51:22.986Z,0.46
2019-04-14T01:55:00.423Z,0.38
2019-04-14T01:58:14.930Z,0.38
2019-04-14T02:01:26.124Z,0.23
2019-04-14T02:04:33.392Z,0.23
2019-04-14T02:07:38.825Z,0.32
2019-04-14T02:10:44.062Z,0.25
2019-04-14T02:13:50.709Z,0.31
2019-04-14T02:17:00.443Z,0.20
2019-04-14T02:20:03.378Z,0.15
2019-04-14T02:23:08.805Z,0.04
2019-04-14T02:26:15.393Z,-0.02
2019-04-14T02:29:21.183Z,-0.05
2019-04-14T02:36:06.282Z,-0.03
2019-04-14T02:45:29.890Z,-0.19
2019-04-14T02:51:35.048Z,-0.17
2019-04-14T02:54:51.765Z,-0.23
2019-04-14T02:57:52.666Z,-0.32
2019-04-14T03:01:46.576Z,-0.30
2019-04-14T03:07:15.623Z,-0.07
2019-04-14T03:10:29.887Z,-0.30
2019-04-14T03:16:54.339Z,-0.40
2019-04-14T03:23:40.596Z,-0.26
2019-04-14T03:27:06.298Z,-0.41
2019-04-14T03:34:16.930Z,-0.37
2019-04-14T03:39:51.377Z,-0.45
2019-04-14T03:46:09.192Z,-0.34
2019-04-14T03:49:14.028Z,-0.28
2019-04-14T03:52:27.095Z,-0.41
2019-04-14T03:55:16.023Z,-0.72
2019-04-14T03:58:10.771Z,-0.67
2019-04-14T04:01:17.184Z,-0.68
2019-04-14T04:04:22.786Z,-0.68
2019-04-14T04:07:28.301Z,-0.58
2019-04-14T04:10:35.695Z,-0.73
2019-04-14T04:13:43.306Z,-0.86
2019-04-14T04:17:06.446Z,-0.90
2019-04-14T04:20:21.922Z,-0.91
2019-04-14T04:23:42.463Z,-0.98
2019-04-14T04:27:09.535Z,-1.09
2019-04-14T04:30:27.622Z,-1.21
2019-04-14T04:33:52.280Z,-1.15
2019-04-14T04:37:08.442Z,-1.15
2019-04-14T04:40:22.847Z,-1.24
2019-04-14T04:43:28.039Z,-1.03
2019-04-14T04:46:33.306Z,-0.95
2019-04-14T04:49:38.612Z,-0.86
2019-04-14T04:52:45.029Z,-0.79
2019-04-14T04:55:50.491Z,-0.69
2019-04-14T04:58:56.740Z,-0.50
2019-04-14T05:02:02.628Z,-0.00
2019-04-14T05:05:44.971Z,0.24
2019-04-14T05:08:52.441Z,0.80
2019-04-14T05:12:11.605Z,1.02
2019-04-14T05:15:42.439Z,1.34
2019-04-14T05:18:48.690Z,1.90
2019-04-14T05:21:54.106Z,1.85
2019-04-14T05:24:59.551Z,2.15
2019-04-14T05:28:04.900Z,2.64
2019-04-14T05:31:10.508Z,2.80
2019-04-14T05:34:15.785Z,3.16
2019-04-14T05:37:21.128Z,3.30
2019-04-14T05:40:28.369Z,4.20
2019-04-14T05:43:42.898Z,3.71
2019-04-14T05:46:40.798Z,3.77
2019-04-14T05:49:50.061Z,4.38
2019-04-14T05:52:53.542Z,5.02
2019-04-14T05:55:59.276Z,5.26
2019-04-14T05:59:04.635Z,5.66
2019-04-14T06:02:11.744Z,5.80
2019-04-14T06:05:17.151Z,6.37
2019-04-14T06:08:22.508Z,5.70
2019-04-14T06:11:27.760Z,5.57
2019-04-14T06:14:34.474Z,5.85
2019-04-14T06:17:40.866Z,5.57
2019-04-14T06:20:47.674Z,5.52
2019-04-14T06:23:52.954Z,5.49
2019-04-14T06:26:59.249Z,5.19
2019-04-14T06:30:21.932Z,4.98
2019-04-14T06:33:39.444Z,5.25
2019-04-14T06:36:59.494Z,5.08
2019-04-14T06:40:06.411Z,4.62
2019-04-14T06:46:25.985Z,4.00
2019-04-14T06:49:31.405Z,3.52
2019-04-14T06:52:36.844Z,3.21
2019-04-14T06:55:42.185Z,3.34
2019-04-14T06:58:47.501Z,3.79
2019-04-14T07:01:52.749Z,4.12
2019-04-14T07:04:58.075Z,4.17
2019-04-14T07:08:03.409Z,4.44
2019-04-14T07:11:08.680Z,4.56
2019-04-14T07:14:13.936Z,4.53
2019-04-14T07:17:19.303Z,4.57
2019-04-14T07:20:24.615Z,4.92
2019-04-14T07:23:29.889Z,5.27
2019-04-14T07:26:35.159Z,5.13
2019-04-14T07:29:56.506Z,5.74
2019-04-14T07:33:33.931Z,5.48
2019-04-14T07:37:01.256Z,5.20
2019-04-14T07:40:14.930Z,5.54
2019-04-14T07:43:28.505Z,5.11
2019-04-14T07:46:42.204Z,5.12
2019-04-14T07:50:14.402Z,4.87
2019-04-14T07:53:30.094Z,5.16
2019-04-14T07:56:51.198Z,5.28
2019-04-14T08:00:15.373Z,5.71
2019-04-14T08:03:42.816Z,5.34
2019-04-14T08:06:50.348Z,5.00
2019-04-14T08:09:56.632Z,5.54
2019-04-14T08:13:01.895Z,6.02
2019-04-14T08:16:07.151Z,6.15
2019-04-14T08:19:12.473Z,6.14
2019-04-14T08:22:17.716Z,5.56
2019-04-14T08:25:22.988Z,5.61
2019-04-14T08:28:28.301Z,5.93
2019-04-14T08:31:33.738Z,5.80
2019-04-14T08:34:39.034Z,5.86
2019-04-14T08:37:45.944Z,5.75
2019-04-14T08:40:53.329Z,5.92
2019-04-14T08:44:17.488Z,6.14
2019-04-14T08:47:38.067Z,5.60
2019-04-14T08:50:54.264Z,5.97
2019-04-14T08:54:18.453Z,5.85
2019-04-14T08:57:41.828Z,5.92
2019-04-14T09:01:04.608Z,5.64
2019-04-14T09:04:32.109Z,5.97
2019-04-14T09:07:42.933Z,6.22
2019-04-14T09:10:51.683Z,6.08
2019-04-14T09:13:56.971Z,6.25
2019-04-14T09:17:04.352Z,6.37
2019-04-14T09:20:09.498Z,6.14
2019-04-14T09:23:14.934Z,6.43
2019-04-14T09:26:20.280Z,6.66
2019-04-14T09:29:25.664Z,7.13
2019-04-14T09:32:31.379Z,6.91
2019-04-14T09:35:36.830Z,7.15
2019-04-14T09:38:42.079Z,6.72
2019-04-14T09:41:47.385Z,6.61
2019-04-14T09:44:52.765Z,6.83
2019-04-14T09:47:58.110Z,7.33
2019-04-14T09:51:05.178Z,7.28
2019-04-14T09:54:11.484Z,7.54
2019-04-14T09:57:16.909Z,7.56
2019-04-14T10:00:22.524Z,7.24
2019-04-14T10:03:27.857Z,7.41
2019-04-14T10:06:33.159Z,7.50
2019-04-14T10:09:40.061Z,7.61
2019-04-14T10:12:45.478Z,8.58
2019-04-14T10:15:52.661Z,8.61
2019-04-14T10:18:58.070Z,8.70
2019-04-14T10:22:03.447Z,7.85
2019-04-14T10:25:08.923Z,8.17
2019-04-14T10:28:14.249Z,8.32
2019-04-14T10:31:19.555Z,8.46
2019-04-14T10:34:25.840Z,8.30
2019-04-14T10:37:31.228Z,8.70
2019-04-14T10:40:36.508Z,8.97
2019-04-14T10:43:41.856Z,9.32
2019-04-14T10:46:47.210Z,8.79
2019-04-14T10:49:52.493Z,9.19
2019-04-14T10:52:57.742Z,8.82
2019-04-14T10:56:03.008Z,9.00
2019-04-14T10:59:08.284Z,9.04
2019-04-14T11:02:14.738Z,8.97
2019-04-14T11:05:20.046Z,8.92
2019-04-14T11:08:25.322Z,9.33
2019-04-14T11:11:30.594Z,9.27
2019-04-14T11:14:40.003Z,9.80
2019-04-14T11:17:45.325Z,9.54
2019-04-14T11:20:50.632Z,9.65
2019-04-14T11:23:55.947Z,9.33
2019-04-14T11:27:02.123Z,9.37
2019-04-14T11:30:10.218Z,9.23
2019-04-14T11:33:34.439Z,9.57
2019-04-14T11:37:04.697Z,9.18
2019-04-14T11:40:13.017Z,9.19
2019-04-14T11:43:18.272Z,9.41
2019-04-14T11:46:23.537Z,9.37
2019-04-14T11:49:28.973Z,9.71
2019-04-14T11:52:35.712Z,9.59
2019-04-14T11:55:41.419Z,9.64
2019-04-14T11:58:46.883Z,9.59
2019-04-14T12:02:05.017Z,9.72
2019-04-14T12:05:17.715Z,9.84
2019-04-14T12:08:30.239Z,9.56
2019-04-14T12:11:35.576Z,9.35
2019-04-14T12:14:40.833Z,9.06
2019-04-14T12:17:46.072Z,8.93
2019-04-14T12:20:52.951Z,9.29
2019-04-14T12:23:58.334Z,8.93
2019-04-14T12:27:03.734Z,8.88
2019-04-14T12:30:11.949Z,8.83
2019-04-14T12:33:17.303Z,9.33
2019-04-14T12:36:22.682Z,9.54
2019-04-14T12:39:28.018Z,9.24
2019-04-14T12:42:58.077Z,8.16
2019-04-14T12:46:22.314Z,8.67
2019-04-14T12:49:31.908Z,8.35
2019-04-14T12:52:38.773Z,8.09
2019-04-14T12:55:46.401Z,8.17
2019-04-14T12:59:10.607Z,8.28
2019-04-14T13:02:24.498Z,8.49
2019-04-14T13:05:29.787Z,7.84
2019-04-14T13:08:35.074Z,7.69
2019-04-14T13:11:40.554Z,7.81
2019-04-14T13:14:45.801Z,8.08
2019-04-14T13:17:51.213Z,8.02
2019-04-14T13:20:58.075Z,7.82
2019-04-14T13:24:05.046Z,8.01
2019-04-14T13:27:12.847Z,8.19
2019-04-14T13:30:20.192Z,8.43
2019-04-14T13:33:25.531Z,8.44
2019-04-14T13:36:30.837Z,7.96
2019-04-14T13:39:37.418Z,8.14
2019-04-14T13:42:42.783Z,7.88
2019-04-14T13:45:49.118Z,7.82
2019-04-14T13:48:54.433Z,7.75
2019-04-14T13:51:59.744Z,7.68
2019-04-14T13:55:05.926Z,7.74
2019-04-14T13:58:11.324Z,7.59
2019-04-14T14:01:16.569Z,7.62
2019-04-14T14:04:21.864Z,7.59
2019-04-14T14:07:27.178Z,7.55
2019-04-14T14:10:32.968Z,7.59
2019-04-14T14:13:46.424Z,7.64
2019-04-14T14:17:07.407Z,7.48
2019-04-14T14:20:32.492Z,7.40
2019-04-14T14:23:49.102Z,6.94
2019-04-14T14:26:54.705Z,6.81
2019-04-14T14:29:59.997Z,6.89
2019-04-14T14:33:05.250Z,6.69
2019-04-14T14:36:11.725Z,6.88
2019-04-14T14:39:19.540Z,6.65
2019-04-14T14:42:24.890Z,6.72
2019-04-14T14:45:48.758Z,6.60
2019-04-14T14:49:02.497Z,6.59
2019-04-14T14:52:09.827Z,6.51
2019-04-14T14:55:15.083Z,6.59
2019-04-14T14:58:20.415Z,6.78
2019-04-14T15:01:27.909Z,6.89
2019-04-14T15:04:34.662Z,6.78
2019-04-14T15:07:39.993Z,6.59
2019-04-14T15:10:45.269Z,6.43
2019-04-14T15:13:50.566Z,6.30
2019-04-14T15:16:55.864Z,6.36
2019-04-14T15:20:01.110Z,6.07
2019-04-14T15:23:06.366Z,6.38
2019-04-14T15:26:11.688Z,6.54
2019-04-14T15:29:17.087Z,6.51
2019-04-14T15:32:22.446Z,6.16
2019-04-14T15:35:27.827Z,6.07
2019-04-14T15:38:33.151Z,6.00
2019-04-14T15:41:39.560Z,6.15
2019-04-14T15:44:44.834Z,6.26
2019-04-14T15:47:50.147Z,6.27
2019-04-14T15:50:55.453Z,6.23
2019-04-14T15:54:00.777Z,5.99
2019-04-14T15:57:21.477Z,5.89
2019-04-14T16:00:55.547Z,6.00
2019-04-14T16:04:26.368Z,5.91
2019-04-14T16:07:53.325Z,6.00
2019-04-14T16:11:26.833Z,6.04
2019-04-14T16:14:54.192Z,6.17
2019-04-14T16:18:27.685Z,6.15
2019-04-14T16:21:32.981Z,6.31
2019-04-14T16:24:38.224Z,6.51
2019-04-14T16:27:58.142Z,6.41
2019-04-14T16:31:31.248Z,6.33
2019-04-14T16:34:42.881Z,6.37
2019-04-14T16:37:49.517Z,6.43
2019-04-14T16:40:54.807Z,6.46
2019-04-14T16:44:00.356Z,6.31
2019-04-14T16:47:05.848Z,6.11
2019-04-14T16:50:11.397Z,6.14
2019-04-14T16:53:35.688Z,6.08
2019-04-14T16:57:11.868Z,5.95
2019-04-14T17:00:23.776Z,5.85
2019-04-14T17:03:29.108Z,5.80
2019-04-14T17:06:34.424Z,5.80
2019-04-14T17:09:39.756Z,5.66
2019-04-14T17:12:46.667Z,5.68
2019-04-14T17:16:10.790Z,5.68
2019-04-14T17:19:38.033Z,5.51
2019-04-14T17:23:08.374Z,5.74
2019-04-14T17:26:32.498Z,5.40
2019-04-14T17:29:46.928Z,5.34
2019-04-14T17:33:10.059Z,5.35
2019-04-14T17:36:43.225Z,5.38
2019-04-14T17:40:02.898Z,5.49
2019-04-14T17:43:37.627Z,5.45
2019-04-14T17:47:01.966Z,5.38
2019-04-14T17:50:40.719Z,5.39
2019-04-14T17:53:50.556Z,5.33
2019-04-14T17:57:13.814Z,5.35
2019-04-14T18:00:24.059Z,5.42
2019-04-14T18:03:41.802Z,5.22
2019-04-14T18:06:53.745Z,5.13
2019-04-14T18:10:27.193Z,5.13
2019-04-14T18:14:03.493Z,5.11
2019-04-14T18:17:27.729Z,5.22
2019-04-14T18:20:37.507Z,5.18
2019-04-14T18:23:42.843Z,5.17
2019-04-14T18:26:48.111Z,5.13
2019-04-14T18:30:18.598Z,5.27
2019-04-14T18:33:50.555Z,5.19
2019-04-14T18:36:59.541Z,5.20
2019-04-14T18:40:33.236Z,5.18
2019-04-14T18:43:52.990Z,5.08
2019-04-14T18:47:17.187Z,5.12
2019-04-14T18:50:31.875Z,5.02
2019-04-14T18:53:52.790Z,5.09
2019-04-14T18:57:29.150Z,5.19
2019-04-14T19:00:48.822Z,5.12
2019-04-14T19:03:54.326Z,5.38
2019-04-14T19:06:59.663Z,5.30
2019-04-14T19:10:06.037Z,5.17
2019-04-14T19:13:19.086Z,5.15
2019-04-14T19:16:39.290Z,5.26
2019-04-14T19:19:38.770Z,5.43
2019-04-14T19:22:44.350Z,5.33
2019-04-14T19:25:49.729Z,5.43
2019-04-14T19:28:55.145Z,5.25
2019-04-14T19:32:02.861Z,5.21
2019-04-14T19:35:08.309Z,5.20
2019-04-14T19:38:15.154Z,5.24
2019-04-14T19:41:20.453Z,5.28
2019-04-14T19:44:25.726Z,5.19
2019-04-14T19:47:30.985Z,5.36
2019-04-14T19:50:36.312Z,5.24
2019-04-14T19:53:41.661Z,5.34
2019-04-14T19:56:46.995Z,5.39
2019-04-14T19:59:52.315Z,5.35
2019-04-14T20:02:59.447Z,5.35
2019-04-14T20:06:05.585Z,5.36
2019-04-14T20:09:10.887Z,5.25
2019-04-14T20:12:16.903Z,5.28
2019-04-14T20:15:31.203Z,5.18
2019-04-14T20:18:44.826Z,5.21
2019-04-14T20:21:59.847Z,5.17
2019-04-14T20:25:34.013Z,5.08
2019-04-14T20:28:52.565Z,5.05
2019-04-14T20:32:13.314Z,5.06
2019-04-14T20:35:18.737Z,5.04
2019-04-14T20:38:24.181Z,5.16
2019-04-14T20:41:29.559Z,5.16
2019-04-14T20:44:34.858Z,5.22
2019-04-14T20:47:41.703Z,5.21
2019-04-14T20:50:46.981Z,5.20
2019-04-14T20:53:52.369Z,5.26
2019-04-14T20:56:57.775Z,5.40
2019-04-14T21:00:03.254Z,5.47
2019-04-14T21:03:28.024Z,5.51
2019-04-14T21:06:58.059Z,5.52
2019-04-14T21:10:27.515Z,5.48
2019-04-14T21:13:51.769Z,5.40
2019-04-14T21:17:00.955Z,5.50
2019-04-14T21:20:40.498Z,5.40
2019-04-14T21:24:00.029Z,5.37
2019-04-14T21:27:19.874Z,5.24
2019-04-14T21:30:44.166Z,5.32
2019-04-14T21:34:23.818Z,5.37
2019-04-14T21:37:40.065Z,5.31
2019-04-14T21:40:53.290Z,5.32
2019-04-14T21:43:59.611Z,5.43
2019-04-14T21:47:05.105Z,5.57
2019-04-14T21:50:10.717Z,5.53
2019-04-14T21:53:16.275Z,5.38
2019-04-14T21:56:22.469Z,5.42
2019-04-14T21:59:30.211Z,5.45
2019-04-14T22:02:53.153Z,5.61
2019-04-14T22:06:21.959Z,5.65
2019-04-14T22:09:32.014Z,5.61
2019-04-14T22:12:37.448Z,5.64
2019-04-14T22:15:42.689Z,5.50
2019-04-14T22:18:50.409Z,5.53
2019-04-14T22:21:56.713Z,5.50
2019-04-14T22:25:02.041Z,5.51
2019-04-14T22:28:07.419Z,5.57
2019-04-14T22:31:12.775Z,5.66
2019-04-14T22:34:18.164Z,5.63
2019-04-14T22:37:23.558Z,5.67
2019-04-14T22:40:28.798Z,5.63
2019-04-14T22:43:34.153Z,5.43
2019-04-14T22:46:39.580Z,5.50
2019-04-14T22:49:44.889Z,5.43
2019-04-14T22:52:50.163Z,5.34
2019-04-14T22:55:55.453Z,5.41
2019-04-14T22:59:00.735Z,5.40
2019-04-14T23:02:26.908Z,5.39
2019-04-14T23:05:51.059Z,5.36
2019-04-14T23:09:01.851Z,5.33
2019-04-14T23:12:46.024Z,5.38
2019-04-14T23:15:58.315Z,5.43
2019-04-14T23:19:25.468Z,5.35
2019-04-14T23:22:51.643Z,5.42
2019-04-14T23:25:56.892Z,5.47
2019-04-14T23:29:02.192Z,5.42
2019-04-14T23:32:08.353Z,5.49
2019-04-14T23:35:13.648Z,5.40
2019-04-14T23:38:18.969Z,5.41
2019-04-14T23:41:24.272Z,5.37
2019-04-14T23:44:29.577Z,5.41
2019-04-14T23:47:35.757Z,5.35
2019-04-14T23:50:41.159Z,5.37
2019-04-14T23:53:46.448Z,5.47
2019-04-14T23:57:04.442Z,5.38
2019-04-14T23:59:58.793Z,5.35
